sensor_id;sensor_type;location;lat;lon;timestamp;P1;durP1;ratioP1;P2;durP2;ratioP2
37781;SDS011;23621;50.878;4.584;2023-03-04T00:00:03;12.73;;;8.75;;
37781;SDS011;23621;50.878;4.584;2023-03-04T00:02:30;10.40;;;8.88;;
37781;SDS011;23621;50.878;4.584;2023-03-04T00:04:57;21.08;;;9.55;;
37781;SDS011;23621;50.878;4.584;2023-03-04T00:07:24;13.90;;;8.88;;
37781;SDS011;23621;50.878;4.584;2023-03-04T00:09:51;10.52;;;9.25;;
37781;SDS011;23621;50.878;4.584;2023-03-04T00:12:18;11.93;;;9.10;;
37781;SDS011;23621;50.878;4.584;2023-03-04T00:14:48;16.42;;;9.80;;
37781;SDS011;23621;50.878;4.584;2023-03-04T00:17:15;13.73;;;9.55;;
37781;SDS011;23621;50.878;4.584;2023-03-04T00:19:42;13.98;;;9.25;;
37781;SDS011;23621;50.878;4.584;2023-03-04T00:22:09;14.90;;;9.20;;
37781;SDS011;23621;50.878;4.584;2023-03-04T00:24:36;12.80;;;9.50;;
37781;SDS011;23621;50.878;4.584;2023-03-04T00:27:22;13.18;;;9.00;;
37781;SDS011;23621;50.878;4.584;2023-03-04T00:29:49;13.45;;;10.00;;
37781;SDS011;23621;50.878;4.584;2023-03-04T00:32:34;18.38;;;9.40;;
37781;SDS011;23621;50.878;4.584;2023-03-04T00:35:01;14.05;;;9.38;;
37781;SDS011;23621;50.878;4.584;2023-03-04T00:37:47;15.32;;;10.65;;
37781;SDS011;23621;50.878;4.584;2023-03-04T00:40:14;14.15;;;9.90;;
37781;SDS011;23621;50.878;4.584;2023-03-04T00:42:41;14.55;;;10.60;;
37781;SDS011;23621;50.878;4.584;2023-03-04T00:45:08;16.02;;;9.43;;
37781;SDS011;23621;50.878;4.584;2023-03-04T00:47:38;13.38;;;9.88;;
37781;SDS011;23621;50.878;4.584;2023-03-04T00:50:05;19.30;;;10.45;;
37781;SDS011;23621;50.878;4.584;2023-03-04T00:52:35;14.93;;;10.02;;
37781;SDS011;23621;50.878;4.584;2023-03-04T00:55:21;14.95;;;9.55;;
37781;SDS011;23621;50.878;4.584;2023-03-04T00:57:48;14.27;;;8.82;;
37781;SDS011;23621;50.878;4.584;2023-03-04T01:00:15;13.82;;;9.30;;
37781;SDS011;23621;50.878;4.584;2023-03-04T01:02:43;15.30;;;9.70;;
37781;SDS011;23621;50.878;4.584;2023-03-04T01:05:28;13.63;;;9.23;;
37781;SDS011;23621;50.878;4.584;2023-03-04T01:07:55;11.32;;;8.93;;
37781;SDS011;23621;50.878;4.584;2023-03-04T01:10:22;18.30;;;9.23;;
37781;SDS011;23621;50.878;4.584;2023-03-04T01:13:08;14.20;;;8.70;;
37781;SDS011;23621;50.878;4.584;2023-03-04T01:15:35;11.02;;;7.90;;
37781;SDS011;23621;50.878;4.584;2023-03-04T01:18:21;12.95;;;8.48;;
37781;SDS011;23621;50.878;4.584;2023-03-04T01:20:49;13.27;;;7.95;;
37781;SDS011;23621;50.878;4.584;2023-03-04T01:23:17;10.20;;;6.75;;
37781;SDS011;23621;50.878;4.584;2023-03-04T01:25:44;10.68;;;7.35;;
37781;SDS011;23621;50.878;4.584;2023-03-04T01:28:30;10.73;;;7.70;;
37781;SDS011;23621;50.878;4.584;2023-03-04T01:31:01;10.60;;;6.95;;
37781;SDS011;23621;50.878;4.584;2023-03-04T01:33:38;11.35;;;7.65;;
37781;SDS011;23621;50.878;4.584;2023-03-04T01:36:05;15.13;;;6.95;;
37781;SDS011;23621;50.878;4.584;2023-03-04T01:38:33;8.02;;;6.82;;
37781;SDS011;23621;50.878;4.584;2023-03-04T01:41:00;12.00;;;7.65;;
37781;SDS011;23621;50.878;4.584;2023-03-04T01:43:28;16.08;;;7.38;;
37781;SDS011;23621;50.878;4.584;2023-03-04T01:45:56;12.30;;;7.63;;
37781;SDS011;23621;50.878;4.584;2023-03-04T01:48:34;11.73;;;8.00;;
37781;SDS011;23621;50.878;4.584;2023-03-04T01:51:03;12.20;;;8.10;;
37781;SDS011;23621;50.878;4.584;2023-03-04T01:53:32;13.63;;;8.02;;
37781;SDS011;23621;50.878;4.584;2023-03-04T01:56:01;11.75;;;7.90;;
37781;SDS011;23621;50.878;4.584;2023-03-04T01:58:37;13.88;;;7.90;;
37781;SDS011;23621;50.878;4.584;2023-03-04T02:01:05;13.50;;;7.60;;
37781;SDS011;23621;50.878;4.584;2023-03-04T02:03:32;10.70;;;6.72;;
37781;SDS011;23621;50.878;4.584;2023-03-04T02:06:08;10.45;;;7.50;;
37781;SDS011;23621;50.878;4.584;2023-03-04T02:08:36;10.88;;;7.07;;
37781;SDS011;23621;50.878;4.584;2023-03-04T02:11:04;11.68;;;7.45;;
37781;SDS011;23621;50.878;4.584;2023-03-04T02:13:31;11.82;;;6.75;;
37781;SDS011;23621;50.878;4.584;2023-03-04T02:16:18;14.30;;;7.15;;
37781;SDS011;23621;50.878;4.584;2023-03-04T02:18:45;10.40;;;6.78;;
37781;SDS011;23621;50.878;4.584;2023-03-04T02:21:28;10.90;;;6.55;;
37781;SDS011;23621;50.878;4.584;2023-03-04T02:24:02;12.43;;;5.78;;
37781;SDS011;23621;50.878;4.584;2023-03-04T02:26:48;10.85;;;6.07;;
37781;SDS011;23621;50.878;4.584;2023-03-04T02:29:15;10.80;;;6.00;;
37781;SDS011;23621;50.878;4.584;2023-03-04T02:31:47;13.88;;;7.03;;
37781;SDS011;23621;50.878;4.584;2023-03-04T02:34:37;11.48;;;6.05;;
37781;SDS011;23621;50.878;4.584;2023-03-04T02:37:11;8.10;;;5.68;;
37781;SDS011;23621;50.878;4.584;2023-03-04T02:39:43;10.00;;;5.60;;
37781;SDS011;23621;50.878;4.584;2023-03-04T02:42:12;11.60;;;6.28;;
37781;SDS011;23621;50.878;4.584;2023-03-04T02:44:41;9.02;;;5.63;;
37781;SDS011;23621;50.878;4.584;2023-03-04T02:47:12;10.27;;;5.43;;
37781;SDS011;23621;50.878;4.584;2023-03-04T02:49:41;8.32;;;5.50;;
37781;SDS011;23621;50.878;4.584;2023-03-04T02:52:19;10.38;;;5.43;;
37781;SDS011;23621;50.878;4.584;2023-03-04T02:54:47;11.45;;;5.68;;
37781;SDS011;23621;50.878;4.584;2023-03-04T02:57:14;8.68;;;5.53;;
37781;SDS011;23621;50.878;4.584;2023-03-04T02:59:41;10.30;;;5.57;;
37781;SDS011;23621;50.878;4.584;2023-03-04T03:02:09;9.65;;;5.68;;
37781;SDS011;23621;50.878;4.584;2023-03-04T03:04:37;9.20;;;5.40;;
37781;SDS011;23621;50.878;4.584;2023-03-04T03:07:08;11.07;;;5.18;;
37781;SDS011;23621;50.878;4.584;2023-03-04T03:09:35;12.65;;;5.38;;
37781;SDS011;23621;50.878;4.584;2023-03-04T03:12:03;10.82;;;5.28;;
37781;SDS011;23621;50.878;4.584;2023-03-04T03:14:30;9.48;;;5.22;;
37781;SDS011;23621;50.878;4.584;2023-03-04T03:16:57;13.23;;;5.82;;
37781;SDS011;23621;50.878;4.584;2023-03-04T03:19:24;9.40;;;5.13;;
37781;SDS011;23621;50.878;4.584;2023-03-04T03:21:51;10.45;;;5.40;;
37781;SDS011;23621;50.878;4.584;2023-03-04T03:24:18;9.45;;;5.38;;
37781;SDS011;23621;50.878;4.584;2023-03-04T03:26:45;13.10;;;6.68;;
37781;SDS011;23621;50.878;4.584;2023-03-04T03:29:12;11.25;;;5.60;;
37781;SDS011;23621;50.878;4.584;2023-03-04T03:31:39;10.50;;;5.53;;
37781;SDS011;23621;50.878;4.584;2023-03-04T03:34:06;12.63;;;5.55;;
37781;SDS011;23621;50.878;4.584;2023-03-04T03:36:52;11.00;;;6.05;;
37781;SDS011;23621;50.878;4.584;2023-03-04T03:39:19;11.40;;;5.88;;
37781;SDS011;23621;50.878;4.584;2023-03-04T03:41:47;11.98;;;6.22;;
37781;SDS011;23621;50.878;4.584;2023-03-04T03:44:14;10.40;;;5.85;;
37781;SDS011;23621;50.878;4.584;2023-03-04T03:46:41;12.23;;;5.88;;
37781;SDS011;23621;50.878;4.584;2023-03-04T03:49:08;12.52;;;6.03;;
37781;SDS011;23621;50.878;4.584;2023-03-04T03:51:35;11.90;;;6.13;;
37781;SDS011;23621;50.878;4.584;2023-03-04T03:54:02;12.30;;;6.07;;
37781;SDS011;23621;50.878;4.584;2023-03-04T03:56:29;8.02;;;5.55;;
37781;SDS011;23621;50.878;4.584;2023-03-04T03:59:15;10.95;;;5.40;;
37781;SDS011;23621;50.878;4.584;2023-03-04T04:01:42;14.02;;;6.28;;
37781;SDS011;23621;50.878;4.584;2023-03-04T04:04:09;9.85;;;5.45;;
37781;SDS011;23621;50.878;4.584;2023-03-04T04:06:37;9.55;;;5.25;;
37781;SDS011;23621;50.878;4.584;2023-03-04T04:09:04;10.98;;;5.50;;
37781;SDS011;23621;50.878;4.584;2023-03-04T04:11:31;8.02;;;5.28;;
37781;SDS011;23621;50.878;4.584;2023-03-04T04:13:58;8.32;;;5.28;;
37781;SDS011;23621;50.878;4.584;2023-03-04T04:16:25;7.80;;;5.13;;
37781;SDS011;23621;50.878;4.584;2023-03-04T04:18:54;12.15;;;5.70;;
37781;SDS011;23621;50.878;4.584;2023-03-04T04:21:39;9.38;;;5.70;;
37781;SDS011;23621;50.878;4.584;2023-03-04T04:24:06;8.85;;;4.80;;
37781;SDS011;23621;50.878;4.584;2023-03-04T04:26:33;11.88;;;4.85;;
37781;SDS011;23621;50.878;4.584;2023-03-04T04:29:00;10.65;;;4.68;;
37781;SDS011;23621;50.878;4.584;2023-03-04T04:31:34;13.10;;;5.63;;
37781;SDS011;23621;50.878;4.584;2023-03-04T04:34:01;9.13;;;5.00;;
37781;SDS011;23621;50.878;4.584;2023-03-04T04:36:28;9.98;;;5.20;;
37781;SDS011;23621;50.878;4.584;2023-03-04T04:38:58;11.75;;;5.35;;
37781;SDS011;23621;50.878;4.584;2023-03-04T04:41:27;7.32;;;4.47;;
37781;SDS011;23621;50.878;4.584;2023-03-04T04:43:57;7.10;;;4.75;;
37781;SDS011;23621;50.878;4.584;2023-03-04T04:46:24;8.60;;;4.47;;
37781;SDS011;23621;50.878;4.584;2023-03-04T04:48:52;10.82;;;5.43;;
37781;SDS011;23621;50.878;4.584;2023-03-04T04:51:19;9.45;;;5.00;;
37781;SDS011;23621;50.878;4.584;2023-03-04T04:53:46;8.10;;;4.47;;
37781;SDS011;23621;50.878;4.584;2023-03-04T04:56:18;8.65;;;4.85;;
37781;SDS011;23621;50.878;4.584;2023-03-04T04:58:47;12.43;;;5.13;;
37781;SDS011;23621;50.878;4.584;2023-03-04T05:01:14;9.32;;;5.00;;
37781;SDS011;23621;50.878;4.584;2023-03-04T05:03:44;9.68;;;4.85;;
37781;SDS011;23621;50.878;4.584;2023-03-04T05:06:12;9.75;;;4.65;;
37781;SDS011;23621;50.878;4.584;2023-03-04T05:08:41;8.38;;;4.85;;
37781;SDS011;23621;50.878;4.584;2023-03-04T05:11:23;10.35;;;5.05;;
37781;SDS011;23621;50.878;4.584;2023-03-04T05:14:09;9.93;;;4.72;;
37781;SDS011;23621;50.878;4.584;2023-03-04T05:16:36;10.27;;;6.18;;
37781;SDS011;23621;50.878;4.584;2023-03-04T05:19:03;11.10;;;5.20;;
37781;SDS011;23621;50.878;4.584;2023-03-04T05:21:30;9.90;;;5.00;;
37781;SDS011;23621;50.878;4.584;2023-03-04T05:23:57;7.30;;;5.72;;
37781;SDS011;23621;50.878;4.584;2023-03-04T05:26:35;9.02;;;5.13;;
37781;SDS011;23621;50.878;4.584;2023-03-04T05:29:03;8.70;;;5.70;;
37781;SDS011;23621;50.878;4.584;2023-03-04T05:31:30;9.88;;;5.63;;
37781;SDS011;23621;50.878;4.584;2023-03-04T05:33:57;11.60;;;5.75;;
37781;SDS011;23621;50.878;4.584;2023-03-04T05:36:24;7.25;;;5.60;;
37781;SDS011;23621;50.878;4.584;2023-03-04T05:38:54;10.65;;;5.93;;
37781;SDS011;23621;50.878;4.584;2023-03-04T05:41:21;11.82;;;6.15;;
37781;SDS011;23621;50.878;4.584;2023-03-04T05:43:48;10.93;;;6.05;;
37781;SDS011;23621;50.878;4.584;2023-03-04T05:46:34;11.05;;;6.22;;
37781;SDS011;23621;50.878;4.584;2023-03-04T05:49:01;12.27;;;6.60;;
37781;SDS011;23621;50.878;4.584;2023-03-04T05:51:28;8.70;;;6.25;;
37781;SDS011;23621;50.878;4.584;2023-03-04T05:53:55;11.55;;;6.47;;
37781;SDS011;23621;50.878;4.584;2023-03-04T05:56:28;12.23;;;6.57;;
37781;SDS011;23621;50.878;4.584;2023-03-04T05:58:57;11.30;;;6.88;;
37781;SDS011;23621;50.878;4.584;2023-03-04T06:01:33;12.60;;;7.25;;
37781;SDS011;23621;50.878;4.584;2023-03-04T06:04:01;11.32;;;6.60;;
37781;SDS011;23621;50.878;4.584;2023-03-04T06:06:28;14.20;;;6.82;;
37781;SDS011;23621;50.878;4.584;2023-03-04T06:08:56;9.18;;;6.63;;
37781;SDS011;23621;50.878;4.584;2023-03-04T06:11:24;11.40;;;7.28;;
37781;SDS011;23621;50.878;4.584;2023-03-04T06:13:52;12.88;;;7.32;;
37781;SDS011;23621;50.878;4.584;2023-03-04T06:16:19;14.40;;;7.40;;
37781;SDS011;23621;50.878;4.584;2023-03-04T06:18:46;11.15;;;7.63;;
37781;SDS011;23621;50.878;4.584;2023-03-04T06:21:32;13.38;;;7.13;;
37781;SDS011;23621;50.878;4.584;2023-03-04T06:23:59;13.27;;;7.65;;
37781;SDS011;23621;50.878;4.584;2023-03-04T06:26:26;14.73;;;8.13;;
37781;SDS011;23621;50.878;4.584;2023-03-04T06:28:53;11.63;;;7.47;;
37781;SDS011;23621;50.878;4.584;2023-03-04T06:31:31;12.85;;;7.75;;
37781;SDS011;23621;50.878;4.584;2023-03-04T06:33:59;12.63;;;7.80;;
37781;SDS011;23621;50.878;4.584;2023-03-04T06:36:26;12.95;;;7.20;;
37781;SDS011;23621;50.878;4.584;2023-03-04T06:38:54;9.57;;;7.80;;
37781;SDS011;23621;50.878;4.584;2023-03-04T06:41:30;11.68;;;6.72;;
37781;SDS011;23621;50.878;4.584;2023-03-04T06:43:57;13.00;;;7.40;;
37781;SDS011;23621;50.878;4.584;2023-03-04T06:46:28;9.15;;;6.93;;
37781;SDS011;23621;50.878;4.584;2023-03-04T06:48:55;13.38;;;6.93;;
37781;SDS011;23621;50.878;4.584;2023-03-04T06:51:23;11.55;;;6.13;;
37781;SDS011;23621;50.878;4.584;2023-03-04T06:53:50;13.85;;;6.50;;
37781;SDS011;23621;50.878;4.584;2023-03-04T06:56:35;14.45;;;6.30;;
37781;SDS011;23621;50.878;4.584;2023-03-04T06:59:03;9.30;;;5.82;;
37781;SDS011;23621;50.878;4.584;2023-03-04T07:01:30;10.52;;;5.72;;
37781;SDS011;23621;50.878;4.584;2023-03-04T07:03:58;8.48;;;5.35;;
37781;SDS011;23621;50.878;4.584;2023-03-04T07:06:26;10.90;;;5.05;;
37781;SDS011;23621;50.878;4.584;2023-03-04T07:08:53;10.05;;;5.13;;
37781;SDS011;23621;50.878;4.584;2023-03-04T07:11:21;8.15;;;4.68;;
37781;SDS011;23621;50.878;4.584;2023-03-04T07:13:51;9.63;;;5.00;;
37781;SDS011;23621;50.878;4.584;2023-03-04T07:16:37;8.43;;;4.45;;
37781;SDS011;23621;50.878;4.584;2023-03-04T07:19:04;11.00;;;4.75;;
37781;SDS011;23621;50.878;4.584;2023-03-04T07:21:32;6.65;;;4.10;;
37781;SDS011;23621;50.878;4.584;2023-03-04T07:23:59;3.90;;;3.28;;
37781;SDS011;23621;50.878;4.584;2023-03-04T07:26:29;8.93;;;3.85;;
37781;SDS011;23621;50.878;4.584;2023-03-04T07:28:56;6.35;;;4.07;;
37781;SDS011;23621;50.878;4.584;2023-03-04T07:31:26;5.38;;;3.72;;
37781;SDS011;23621;50.878;4.584;2023-03-04T07:34:03;5.95;;;3.53;;
37781;SDS011;23621;50.878;4.584;2023-03-04T07:36:40;5.95;;;3.58;;
37781;SDS011;23621;50.878;4.584;2023-03-04T07:39:09;5.63;;;3.33;;
37781;SDS011;23621;50.878;4.584;2023-03-04T07:41:50;6.38;;;3.90;;
37781;SDS011;23621;50.878;4.584;2023-03-04T07:44:17;8.02;;;3.38;;
37781;SDS011;23621;50.878;4.584;2023-03-04T07:46:47;5.93;;;3.88;;
37781;SDS011;23621;50.878;4.584;2023-03-04T07:49:15;6.93;;;3.72;;
37781;SDS011;23621;50.878;4.584;2023-03-04T07:51:42;7.35;;;3.70;;
37781;SDS011;23621;50.878;4.584;2023-03-04T07:54:12;5.85;;;3.50;;
37781;SDS011;23621;50.878;4.584;2023-03-04T07:56:57;7.70;;;3.50;;
37781;SDS011;23621;50.878;4.584;2023-03-04T07:59:24;5.28;;;3.30;;
37781;SDS011;23621;50.878;4.584;2023-03-04T08:01:51;7.32;;;3.95;;
37781;SDS011;23621;50.878;4.584;2023-03-04T08:04:18;7.55;;;3.38;;
37781;SDS011;23621;50.878;4.584;2023-03-04T08:07:04;11.30;;;3.70;;
37781;SDS011;23621;50.878;4.584;2023-03-04T08:09:31;8.25;;;3.85;;
37781;SDS011;23621;50.878;4.584;2023-03-04T08:11:58;5.57;;;3.05;;
37781;SDS011;23621;50.878;4.584;2023-03-04T08:14:25;5.93;;;3.38;;
37781;SDS011;23621;50.878;4.584;2023-03-04T08:16:52;5.60;;;3.33;;
37781;SDS011;23621;50.878;4.584;2023-03-04T08:19:19;6.43;;;3.35;;
37781;SDS011;23621;50.878;4.584;2023-03-04T08:22:05;7.10;;;3.15;;
37781;SDS011;23621;50.878;4.584;2023-03-04T08:24:32;7.07;;;3.85;;
37781;SDS011;23621;50.878;4.584;2023-03-04T08:27:08;5.40;;;2.90;;
37781;SDS011;23621;50.878;4.584;2023-03-04T08:29:35;5.55;;;3.00;;
37781;SDS011;23621;50.878;4.584;2023-03-04T08:32:20;3.33;;;2.67;;
37781;SDS011;23621;50.878;4.584;2023-03-04T08:34:48;6.47;;;2.92;;
37781;SDS011;23621;50.878;4.584;2023-03-04T08:37:30;6.28;;;3.25;;
37781;SDS011;23621;50.878;4.584;2023-03-04T08:39:57;6.50;;;2.55;;
37781;SDS011;23621;50.878;4.584;2023-03-04T08:42:24;7.07;;;2.40;;
37781;SDS011;23621;50.878;4.584;2023-03-04T08:44:51;8.63;;;3.00;;
37781;SDS011;23621;50.878;4.584;2023-03-04T08:47:18;7.25;;;2.88;;
37781;SDS011;23621;50.878;4.584;2023-03-04T08:49:45;4.15;;;2.33;;
37781;SDS011;23621;50.878;4.584;2023-03-04T08:52:12;5.82;;;2.97;;
37781;SDS011;23621;50.878;4.584;2023-03-04T08:54:39;3.55;;;1.83;;
37781;SDS011;23621;50.878;4.584;2023-03-04T08:57:24;6.35;;;2.38;;
37781;SDS011;23621;50.878;4.584;2023-03-04T08:59:51;5.18;;;1.70;;
37781;SDS011;23621;50.878;4.584;2023-03-04T09:02:37;4.50;;;1.42;;
37781;SDS011;23621;50.878;4.584;2023-03-04T09:05:04;5.07;;;1.95;;
37781;SDS011;23621;50.878;4.584;2023-03-04T09:07:50;1.50;;;1.40;;
37781;SDS011;23621;50.878;4.584;2023-03-04T09:10:18;5.72;;;1.90;;
37781;SDS011;23621;50.878;4.584;2023-03-04T09:12:45;3.55;;;1.90;;
37781;SDS011;23621;50.878;4.584;2023-03-04T09:15:12;5.03;;;2.13;;
37781;SDS011;23621;50.878;4.584;2023-03-04T09:17:39;2.42;;;1.63;;
37781;SDS011;23621;50.878;4.584;2023-03-04T09:20:10;5.22;;;2.25;;
37781;SDS011;23621;50.878;4.584;2023-03-04T09:22:38;5.75;;;1.90;;
37781;SDS011;23621;50.878;4.584;2023-03-04T09:25:07;3.15;;;2.08;;
37781;SDS011;23621;50.878;4.584;2023-03-04T09:27:38;3.70;;;1.92;;
37781;SDS011;23621;50.878;4.584;2023-03-04T09:30:08;5.93;;;2.20;;
37781;SDS011;23621;50.878;4.584;2023-03-04T09:32:36;6.22;;;2.17;;
37781;SDS011;23621;50.878;4.584;2023-03-04T09:35:03;1.90;;;1.80;;
37781;SDS011;23621;50.878;4.584;2023-03-04T09:37:31;5.35;;;2.13;;
37781;SDS011;23621;50.878;4.584;2023-03-04T09:39:58;7.07;;;2.25;;
37781;SDS011;23621;50.878;4.584;2023-03-04T09:42:36;5.40;;;2.45;;
37781;SDS011;23621;50.878;4.584;2023-03-04T09:45:13;5.72;;;2.20;;
37781;SDS011;23621;50.878;4.584;2023-03-04T09:47:44;4.00;;;1.95;;
37781;SDS011;23621;50.878;4.584;2023-03-04T09:50:16;5.60;;;2.53;;
37781;SDS011;23621;50.878;4.584;2023-03-04T09:55:30;5.68;;;2.50;;
37781;SDS011;23621;50.878;4.584;2023-03-04T10:06:30;4.28;;;1.58;;
37781;SDS011;23621;50.878;4.584;2023-03-04T10:09:22;2.38;;;1.60;;
37781;SDS011;23621;50.878;4.584;2023-03-04T10:12:14;4.40;;;2.00;;
37781;SDS011;23621;50.878;4.584;2023-03-04T10:14:46;3.55;;;2.00;;
37781;SDS011;23621;50.878;4.584;2023-03-04T10:17:51;6.80;;;2.45;;
37781;SDS011;23621;50.878;4.584;2023-03-04T10:20:32;3.97;;;1.83;;
37781;SDS011;23621;50.878;4.584;2023-03-04T10:23:25;3.15;;;2.17;;
37781;SDS011;23621;50.878;4.584;2023-03-04T10:25:54;5.75;;;2.03;;
37781;SDS011;23621;50.878;4.584;2023-03-04T10:28:25;3.17;;;2.00;;
37781;SDS011;23621;50.878;4.584;2023-03-04T10:33:35;4.03;;;2.05;;
37781;SDS011;23621;50.878;4.584;2023-03-04T10:38:52;3.15;;;2.63;;
37781;SDS011;23621;50.878;4.584;2023-03-04T10:41:23;3.67;;;2.13;;
37781;SDS011;23621;50.878;4.584;2023-03-04T10:44:04;4.53;;;2.53;;
37781;SDS011;23621;50.878;4.584;2023-03-04T10:46:43;2.95;;;2.40;;
37781;SDS011;23621;50.878;4.584;2023-03-04T10:49:30;5.90;;;2.88;;
37781;SDS011;23621;50.878;4.584;2023-03-04T10:52:01;5.82;;;2.45;;
37781;SDS011;23621;50.878;4.584;2023-03-04T10:55:23;2.60;;;2.40;;
37781;SDS011;23621;50.878;4.584;2023-03-04T10:58:02;5.72;;;2.50;;
37781;SDS011;23621;50.878;4.584;2023-03-04T11:00:36;3.97;;;2.50;;
37781;SDS011;23621;50.878;4.584;2023-03-04T11:03:24;6.70;;;3.03;;
37781;SDS011;23621;50.878;4.584;2023-03-04T11:06:15;3.53;;;2.67;;
37781;SDS011;23621;50.878;4.584;2023-03-04T11:08:43;5.47;;;2.75;;
37781;SDS011;23621;50.878;4.584;2023-03-04T11:14:37;16.13;;;8.63;;
37781;SDS011;23621;50.878;4.584;2023-03-04T11:17:20;4.97;;;3.33;;
37781;SDS011;23621;50.878;4.584;2023-03-04T11:23:48;5.65;;;3.83;;
37781;SDS011;23621;50.878;4.584;2023-03-04T11:26:02;4.70;;;3.50;;
37781;SDS011;23621;50.878;4.584;2023-03-04T11:28:46;4.57;;;3.30;;
37781;SDS011;23621;50.878;4.584;2023-03-04T11:31:44;6.45;;;3.80;;
37781;SDS011;23621;50.878;4.584;2023-03-04T11:34:54;4.45;;;3.33;;
37781;SDS011;23621;50.878;4.584;2023-03-04T11:40:14;4.20;;;2.88;;
37781;SDS011;23621;50.878;4.584;2023-03-04T11:45:27;5.13;;;2.45;;
37781;SDS011;23621;50.878;4.584;2023-03-04T11:48:08;2.83;;;2.30;;
37781;SDS011;23621;50.878;4.584;2023-03-04T11:50:53;4.78;;;1.80;;
37781;SDS011;23621;50.878;4.584;2023-03-04T11:53:30;3.03;;;2.10;;
37781;SDS011;23621;50.878;4.584;2023-03-04T12:05:04;4.82;;;3.10;;
37781;SDS011;23621;50.878;4.584;2023-03-04T12:15:27;6.32;;;4.32;;
37781;SDS011;23621;50.878;4.584;2023-03-04T12:18:21;8.88;;;4.03;;
37781;SDS011;23621;50.878;4.584;2023-03-04T12:26:50;5.53;;;3.20;;
37781;SDS011;23621;50.878;4.584;2023-03-04T12:29:33;6.05;;;3.83;;
37781;SDS011;23621;50.878;4.584;2023-03-04T12:40:37;6.22;;;4.43;;
37781;SDS011;23621;50.878;4.584;2023-03-04T12:43:15;8.80;;;3.85;;
37781;SDS011;23621;50.878;4.584;2023-03-04T12:48:40;5.40;;;3.85;;
37781;SDS011;23621;50.878;4.584;2023-03-04T12:51:14;4.80;;;3.30;;
37781;SDS011;23621;50.878;4.584;2023-03-04T12:57:18;10.80;;;5.18;;
37781;SDS011;23621;50.878;4.584;2023-03-04T13:14:07;6.63;;;4.57;;
37781;SDS011;23621;50.878;4.584;2023-03-04T13:16:53;9.43;;;5.20;;
37781;SDS011;23621;50.878;4.584;2023-03-04T13:30:38;4.65;;;4.20;;
37781;SDS011;23621;50.878;4.584;2023-03-04T13:36:03;5.03;;;4.13;;
37781;SDS011;23621;50.878;4.584;2023-03-04T13:38:35;7.78;;;5.03;;
37781;SDS011;23621;50.878;4.584;2023-03-04T13:43:45;6.97;;;4.32;;
37781;SDS011;23621;50.878;4.584;2023-03-04T13:51:17;6.30;;;4.18;;
37781;SDS011;23621;50.878;4.584;2023-03-04T13:56:32;6.40;;;3.80;;
37781;SDS011;23621;50.878;4.584;2023-03-04T13:59:07;4.75;;;3.42;;
37781;SDS011;23621;50.878;4.584;2023-03-04T14:01:49;3.72;;;3.42;;
37781;SDS011;23621;50.878;4.584;2023-03-04T14:04:23;4.65;;;3.63;;
37781;SDS011;23621;50.878;4.584;2023-03-04T14:06:58;6.95;;;3.80;;
37781;SDS011;23621;50.878;4.584;2023-03-04T14:09:31;7.07;;;4.15;;
37781;SDS011;23621;50.878;4.584;2023-03-04T14:12:00;4.38;;;3.80;;
37781;SDS011;23621;50.878;4.584;2023-03-04T14:15:15;3.95;;;3.60;;
37781;SDS011;23621;50.878;4.584;2023-03-04T14:17:32;4.30;;;3.90;;
37781;SDS011;23621;50.878;4.584;2023-03-04T14:20:23;5.70;;;3.60;;
37781;SDS011;23621;50.878;4.584;2023-03-04T14:23:00;3.67;;;3.35;;
37781;SDS011;23621;50.878;4.584;2023-03-04T14:25:48;3.78;;;3.40;;
37781;SDS011;23621;50.878;4.584;2023-03-04T14:28:40;4.85;;;3.58;;
37781;SDS011;23621;50.878;4.584;2023-03-04T14:31:18;4.07;;;3.30;;
37781;SDS011;23621;50.878;4.584;2023-03-04T14:33:48;3.65;;;3.35;;
37781;SDS011;23621;50.878;4.584;2023-03-04T14:36:20;3.92;;;3.25;;
37781;SDS011;23621;50.878;4.584;2023-03-04T14:38:52;4.00;;;3.38;;
37781;SDS011;23621;50.878;4.584;2023-03-04T14:46:46;3.40;;;3.10;;
37781;SDS011;23621;50.878;4.584;2023-03-04T14:49:33;4.45;;;3.20;;
37781;SDS011;23621;50.878;4.584;2023-03-04T14:52:03;3.55;;;2.72;;
37781;SDS011;23621;50.878;4.584;2023-03-04T14:57:00;3.20;;;2.90;;
37781;SDS011;23621;50.878;4.584;2023-03-04T14:59:47;3.10;;;2.80;;
37781;SDS011;23621;50.878;4.584;2023-03-04T15:02:23;2.53;;;2.33;;
37781;SDS011;23621;50.878;4.584;2023-03-04T15:04:59;4.30;;;2.72;;
37781;SDS011;23621;50.878;4.584;2023-03-04T15:08:02;2.90;;;2.60;;
37781;SDS011;23621;50.878;4.584;2023-03-04T15:10:36;2.90;;;2.70;;
37781;SDS011;23621;50.878;4.584;2023-03-04T15:13:42;3.58;;;2.90;;
37781;SDS011;23621;50.878;4.584;2023-03-04T15:16:11;3.20;;;2.70;;
37781;SDS011;23621;50.878;4.584;2023-03-04T15:24:02;5.07;;;2.10;;
37781;SDS011;23621;50.878;4.584;2023-03-04T15:26:31;2.42;;;2.22;;
37781;SDS011;23621;50.878;4.584;2023-03-04T15:29:05;4.47;;;2.75;;
37781;SDS011;23621;50.878;4.584;2023-03-04T15:31:44;3.42;;;2.60;;
37781;SDS011;23621;50.878;4.584;2023-03-04T15:34:14;4.00;;;2.40;;
37781;SDS011;23621;50.878;4.584;2023-03-04T15:37:01;4.78;;;2.72;;
37781;SDS011;23621;50.878;4.584;2023-03-04T15:39:28;2.42;;;2.22;;
37781;SDS011;23621;50.878;4.584;2023-03-04T15:41:55;2.95;;;2.70;;
37781;SDS011;23621;50.878;4.584;2023-03-04T15:44:22;4.78;;;2.20;;
37781;SDS011;23621;50.878;4.584;2023-03-04T15:46:49;3.50;;;2.30;;
37781;SDS011;23621;50.878;4.584;2023-03-04T15:49:16;1.85;;;1.73;;
37781;SDS011;23621;50.878;4.584;2023-03-04T15:51:43;2.72;;;2.03;;
37781;SDS011;23621;50.878;4.584;2023-03-04T15:54:11;2.20;;;2.00;;
37781;SDS011;23621;50.878;4.584;2023-03-04T15:56:39;3.20;;;2.38;;
37781;SDS011;23621;50.878;4.584;2023-03-04T15:59:13;2.83;;;2.30;;
37781;SDS011;23621;50.878;4.584;2023-03-04T16:01:42;3.83;;;2.53;;
37781;SDS011;23621;50.878;4.584;2023-03-04T16:04:10;2.95;;;2.30;;
37781;SDS011;23621;50.878;4.584;2023-03-04T16:06:44;3.30;;;2.63;;
37781;SDS011;23621;50.878;4.584;2023-03-04T16:09:31;3.55;;;2.45;;
37781;SDS011;23621;50.878;4.584;2023-03-04T16:11:58;3.45;;;2.40;;
37781;SDS011;23621;50.878;4.584;2023-03-04T16:14:27;3.95;;;2.47;;
37781;SDS011;23621;50.878;4.584;2023-03-04T16:16:54;3.63;;;2.00;;
37781;SDS011;23621;50.878;4.584;2023-03-04T16:19:21;2.63;;;2.22;;
37781;SDS011;23621;50.878;4.584;2023-03-04T16:22:09;3.40;;;2.53;;
37781;SDS011;23621;50.878;4.584;2023-03-04T16:24:43;4.15;;;2.40;;
37781;SDS011;23621;50.878;4.584;2023-03-04T16:27:13;5.20;;;2.58;;
37781;SDS011;23621;50.878;4.584;2023-03-04T16:29:41;3.40;;;2.33;;
37781;SDS011;23621;50.878;4.584;2023-03-04T16:32:10;3.58;;;2.50;;
37781;SDS011;23621;50.878;4.584;2023-03-04T16:34:37;3.13;;;2.30;;
37781;SDS011;23621;50.878;4.584;2023-03-04T16:37:06;4.75;;;2.40;;
37781;SDS011;23621;50.878;4.584;2023-03-04T16:39:39;3.22;;;2.30;;
37781;SDS011;23621;50.878;4.584;2023-03-04T16:42:14;4.47;;;2.38;;
37781;SDS011;23621;50.878;4.584;2023-03-04T16:44:44;3.03;;;2.60;;
37781;SDS011;23621;50.878;4.584;2023-03-04T16:47:18;4.88;;;2.50;;
37781;SDS011;23621;50.878;4.584;2023-03-04T16:49:48;2.42;;;2.22;;
37781;SDS011;23621;50.878;4.584;2023-03-04T16:54:56;2.78;;;2.13;;
37781;SDS011;23621;50.878;4.584;2023-03-04T16:57:24;4.75;;;2.58;;
37781;SDS011;23621;50.878;4.584;2023-03-04T16:59:53;3.53;;;2.40;;
37781;SDS011;23621;50.878;4.584;2023-03-04T17:02:22;5.55;;;2.60;;
37781;SDS011;23621;50.878;4.584;2023-03-04T17:04:51;3.40;;;2.60;;
37781;SDS011;23621;50.878;4.584;2023-03-04T17:07:18;5.32;;;2.75;;
37781;SDS011;23621;50.878;4.584;2023-03-04T17:09:45;3.58;;;2.20;;
37781;SDS011;23621;50.878;4.584;2023-03-04T17:12:12;3.70;;;2.13;;
37781;SDS011;23621;50.878;4.584;2023-03-04T17:14:39;2.80;;;2.30;;